sensor_id;sensor_type;location;lat;lon;timestamp;temperature;humidity
21602;DHT22;10963;50.934;4.668;2024-02-23T00:01:43;6.70;99.90
21602;DHT22;10963;50.934;4.668;2024-02-23T00:04:09;6.70;99.90
21602;DHT22;10963;50.934;4.668;2024-02-23T00:06:40;6.70;99.90
21602;DHT22;10963;50.934;4.668;2024-02-23T00:09:08;6.80;99.90
21602;DHT22;10963;50.934;4.668;2024-02-23T00:11:39;6.70;99.90
21602;DHT22;10963;50.934;4.668;2024-02-23T00:14:07;6.60;99.90
21602;DHT22;10963;50.934;4.668;2024-02-23T00:16:41;6.40;99.90
21602;DHT22;10963;50.934;4.668;2024-02-23T00:19:10;6.40;99.90
21602;DHT22;10963;50.934;4.668;2024-02-23T00:21:38;6.40;99.90
21602;DHT22;10963;50.934;4.668;2024-02-23T00:24:05;6.40;99.90
21602;DHT22;10963;50.934;4.668;2024-02-23T00:26:33;6.60;99.90
21602;DHT22;10963;50.934;4.668;2024-02-23T00:28:59;6.60;99.90
21602;DHT22;10963;50.934;4.668;2024-02-23T00:31:27;6.60;99.90
21602;DHT22;10963;50.934;4.668;2024-02-23T00:33:55;6.50;99.90
21602;DHT22;10963;50.934;4.668;2024-02-23T00:36:21;6.60;99.90
21602;DHT22;10963;50.934;4.668;2024-02-23T00:38:52;6.60;99.90
21602;DHT22;10963;50.934;4.668;2024-02-23T00:41:17;6.60;99.90
21602;DHT22;10963;50.934;4.668;2024-02-23T00:43:43;6.70;99.90
21602;DHT22;10963;50.934;4.668;2024-02-23T00:46:09;6.60;99.90
21602;DHT22;10963;50.934;4.668;2024-02-23T00:48:35;6.50;99.90
21602;DHT22;10963;50.934;4.668;2024-02-23T00:51:03;6.40;99.90
21602;DHT22;10963;50.934;4.668;2024-02-23T00:53:31;6.50;99.90
21602;DHT22;10963;50.934;4.668;2024-02-23T00:55:58;6.50;99.90
21602;DHT22;10963;50.934;4.668;2024-02-23T00:58:24;6.50;99.90
21602;DHT22;10963;50.934;4.668;2024-02-23T01:00:50;6.50;99.90
21602;DHT22;10963;50.934;4.668;2024-02-23T01:03:16;6.40;99.90
21602;DHT22;10963;50.934;4.668;2024-02-23T01:05:43;6.40;99.90
21602;DHT22;10963;50.934;4.668;2024-02-23T01:08:09;6.40;99.90
21602;DHT22;10963;50.934;4.668;2024-02-23T01:10:35;6.40;99.90
21602;DHT22;10963;50.934;4.668;2024-02-23T01:13:01;6.30;99.90
21602;DHT22;10963;50.934;4.668;2024-02-23T01:15:28;6.30;99.90
21602;DHT22;10963;50.934;4.668;2024-02-23T01:17:57;6.20;99.90
21602;DHT22;10963;50.934;4.668;2024-02-23T01:20:22;6.30;99.90
21602;DHT22;10963;50.934;4.668;2024-02-23T01:22:48;6.30;99.90
21602;DHT22;10963;50.934;4.668;2024-02-23T01:25:16;6.20;99.90
21602;DHT22;10963;50.934;4.668;2024-02-23T01:27:47;6.20;99.90
21602;DHT22;10963;50.934;4.668;2024-02-23T01:30:13;6.20;99.90
21602;DHT22;10963;50.934;4.668;2024-02-23T01:32:41;6.20;99.90
21602;DHT22;10963;50.934;4.668;2024-02-23T01:35:07;6.20;99.90
21602;DHT22;10963;50.934;4.668;2024-02-23T01:37:37;6.20;99.90
21602;DHT22;10963;50.934;4.668;2024-02-23T01:40:03;6.30;99.90
21602;DHT22;10963;50.934;4.668;2024-02-23T01:42:29;6.20;99.90
21602;DHT22;10963;50.934;4.668;2024-02-23T01:44:55;6.10;99.90
21602;DHT22;10963;50.934;4.668;2024-02-23T01:47:28;6.10;99.90
21602;DHT22;10963;50.934;4.668;2024-02-23T01:49:57;6.10;99.90
21602;DHT22;10963;50.934;4.668;2024-02-23T01:52:24;6.10;99.90
21602;DHT22;10963;50.934;4.668;2024-02-23T01:54:51;6.10;99.90
21602;DHT22;10963;50.934;4.668;2024-02-23T01:57:18;6.20;99.90
21602;DHT22;10963;50.934;4.668;2024-02-23T01:59:44;6.20;99.90
21602;DHT22;10963;50.934;4.668;2024-02-23T02:02:09;6.30;99.90
21602;DHT22;10963;50.934;4.668;2024-02-23T02:04:35;6.20;99.90
21602;DHT22;10963;50.934;4.668;2024-02-23T02:07:01;6.20;99.90
21602;DHT22;10963;50.934;4.668;2024-02-23T02:09:27;6.20;99.90
21602;DHT22;10963;50.934;4.668;2024-02-23T02:11:53;6.00;99.90
21602;DHT22;10963;50.934;4.668;2024-02-23T02:14:21;6.00;99.90
21602;DHT22;10963;50.934;4.668;2024-02-23T02:16:49;6.20;99.90
21602;DHT22;10963;50.934;4.668;2024-02-23T02:19:17;6.20;99.90
21602;DHT22;10963;50.934;4.668;2024-02-23T02:21:43;6.20;99.90
21602;DHT22;10963;50.934;4.668;2024-02-23T02:24:13;6.20;99.90
21602;DHT22;10963;50.934;4.668;2024-02-23T02:26:39;6.30;99.90
21602;DHT22;10963;50.934;4.668;2024-02-23T02:29:07;6.40;99.90
21602;DHT22;10963;50.934;4.668;2024-02-23T02:31:33;6.30;99.90
21602;DHT22;10963;50.934;4.668;2024-02-23T02:34:05;6.20;99.90
21602;DHT22;10963;50.934;4.668;2024-02-23T02:36:30;6.30;99.90
21602;DHT22;10963;50.934;4.668;2024-02-23T02:38:59;6.20;99.90
21602;DHT22;10963;50.934;4.668;2024-02-23T02:41:28;6.30;99.90
21602;DHT22;10963;50.934;4.668;2024-02-23T02:43:55;6.20;99.90
21602;DHT22;10963;50.934;4.668;2024-02-23T02:46:21;6.20;99.90
21602;DHT22;10963;50.934;4.668;2024-02-23T02:48:47;6.20;99.90
21602;DHT22;10963;50.934;4.668;2024-02-23T02:51:12;6.20;99.90
21602;DHT22;10963;50.934;4.668;2024-02-23T02:53:41;6.20;99.90
21602;DHT22;10963;50.934;4.668;2024-02-23T02:56:07;6.30;99.90
21602;DHT22;10963;50.934;4.668;2024-02-23T02:58:32;6.30;99.90
21602;DHT22;10963;50.934;4.668;2024-02-23T03:01:01;6.30;99.90
21602;DHT22;10963;50.934;4.668;2024-02-23T03:03:31;6.20;99.90
21602;DHT22;10963;50.934;4.668;2024-02-23T03:05:57;6.30;99.90
21602;DHT22;10963;50.934;4.668;2024-02-23T03:08:22;6.30;99.90
21602;DHT22;10963;50.934;4.668;2024-02-23T03:10:48;6.30;99.90
21602;DHT22;10963;50.934;4.668;2024-02-23T03:13:16;6.30;99.90
21602;DHT22;10963;50.934;4.668;2024-02-23T03:15:43;6.40;99.90
21602;DHT22;10963;50.934;4.668;2024-02-23T03:18:09;6.40;99.90
21602;DHT22;10963;50.934;4.668;2024-02-23T03:20:35;6.40;99.90
21602;DHT22;10963;50.934;4.668;2024-02-23T03:23:03;6.50;99.90
21602;DHT22;10963;50.934;4.668;2024-02-23T03:25:31;6.40;99.90
21602;DHT22;10963;50.934;4.668;2024-02-23T03:27:57;6.40;99.90
21602;DHT22;10963;50.934;4.668;2024-02-23T03:30:23;6.30;99.90
21602;DHT22;10963;50.934;4.668;2024-02-23T03:32:48;6.30;99.90
21602;DHT22;10963;50.934;4.668;2024-02-23T03:35:14;6.30;99.90
21602;DHT22;10963;50.934;4.668;2024-02-23T03:37:40;6.20;99.90
21602;DHT22;10963;50.934;4.668;2024-02-23T03:40:06;6.20;99.90
21602;DHT22;10963;50.934;4.668;2024-02-23T03:42:35;6.20;99.90
21602;DHT22;10963;50.934;4.668;2024-02-23T03:45:07;6.20;99.90
21602;DHT22;10963;50.934;4.668;2024-02-23T03:47:35;6.30;99.90
21602;DHT22;10963;50.934;4.668;2024-02-23T03:50:01;6.20;99.90
21602;DHT22;10963;50.934;4.668;2024-02-23T03:52:27;6.30;99.90
21602;DHT22;10963;50.934;4.668;2024-02-23T03:54:55;6.30;99.90
21602;DHT22;10963;50.934;4.668;2024-02-23T03:57:20;6.20;99.90
21602;DHT22;10963;50.934;4.668;2024-02-23T03:59:57;6.20;99.90
21602;DHT22;10963;50.934;4.668;2024-02-23T04:02:23;6.20;99.90
21602;DHT22;10963;50.934;4.668;2024-02-23T04:04:49;6.20;99.90
21602;DHT22;10963;50.934;4.668;2024-02-23T04:07:19;6.30;99.90
21602;DHT22;10963;50.934;4.668;2024-02-23T04:09:47;6.30;99.90
21602;DHT22;10963;50.934;4.668;2024-02-23T04:12:23;6.40;99.90
21602;DHT22;10963;50.934;4.668;2024-02-23T04:14:49;6.50;99.90
21602;DHT22;10963;50.934;4.668;2024-02-23T04:17:15;6.60;99.90
21602;DHT22;10963;50.934;4.668;2024-02-23T04:19:42;6.50;99.90
21602;DHT22;10963;50.934;4.668;2024-02-23T04:22:11;6.50;99.90
21602;DHT22;10963;50.934;4.668;2024-02-23T04:24:42;6.40;99.90
21602;DHT22;10963;50.934;4.668;2024-02-23T04:27:08;6.40;99.90
21602;DHT22;10963;50.934;4.668;2024-02-23T04:29:34;6.40;99.90
21602;DHT22;10963;50.934;4.668;2024-02-23T04:32:02;6.40;99.90
21602;DHT22;10963;50.934;4.668;2024-02-23T04:34:28;6.60;99.90
21602;DHT22;10963;50.934;4.668;2024-02-23T04:36:54;6.50;99.90
21602;DHT22;10963;50.934;4.668;2024-02-23T04:39:21;6.60;99.90
21602;DHT22;10963;50.934;4.668;2024-02-23T04:41:47;6.50;99.90
21602;DHT22;10963;50.934;4.668;2024-02-23T04:44:15;6.40;99.90
21602;DHT22;10963;50.934;4.668;2024-02-23T04:46:43;6.40;99.90
21602;DHT22;10963;50.934;4.668;2024-02-23T04:49:11;6.40;99.90
21602;DHT22;10963;50.934;4.668;2024-02-23T04:51:37;6.40;99.90
21602;DHT22;10963;50.934;4.668;2024-02-23T04:54:05;6.40;99.90
21602;DHT22;10963;50.934;4.668;2024-02-23T04:56:31;6.40;99.90
21602;DHT22;10963;50.934;4.668;2024-02-23T04:58:58;6.30;99.90
21602;DHT22;10963;50.934;4.668;2024-02-23T05:01:29;6.30;99.90
21602;DHT22;10963;50.934;4.668;2024-02-23T05:04:02;6.30;99.90
21602;DHT22;10963;50.934;4.668;2024-02-23T05:06:31;6.30;99.90
21602;DHT22;10963;50.934;4.668;2024-02-23T05:08:57;6.40;99.90
21602;DHT22;10963;50.934;4.668;2024-02-23T05:11:22;6.40;99.90
21602;DHT22;10963;50.934;4.668;2024-02-23T05:13:50;6.40;99.90
21602;DHT22;10963;50.934;4.668;2024-02-23T05:16:16;6.30;99.90
21602;DHT22;10963;50.934;4.668;2024-02-23T05:18:44;6.30;99.90
21602;DHT22;10963;50.934;4.668;2024-02-23T05:21:14;6.30;99.90
21602;DHT22;10963;50.934;4.668;2024-02-23T05:23:40;6.30;99.90
21602;DHT22;10963;50.934;4.668;2024-02-23T05:26:08;6.30;99.90
21602;DHT22;10963;50.934;4.668;2024-02-23T05:28:36;6.40;99.90
21602;DHT22;10963;50.934;4.668;2024-02-23T05:31:05;6.40;99.90
21602;DHT22;10963;50.934;4.668;2024-02-23T05:33:31;6.40;99.90
21602;DHT22;10963;50.934;4.668;2024-02-23T05:35:59;6.40;99.90
21602;DHT22;10963;50.934;4.668;2024-02-23T05:38:25;6.40;99.90
21602;DHT22;10963;50.934;4.668;2024-02-23T05:40:50;6.50;99.90
21602;DHT22;10963;50.934;4.668;2024-02-23T05:43:17;6.40;99.90
21602;DHT22;10963;50.934;4.668;2024-02-23T05:45:47;6.40;99.90
21602;DHT22;10963;50.934;4.668;2024-02-23T05:48:13;6.40;99.90
21602;DHT22;10963;50.934;4.668;2024-02-23T05:50:39;6.40;99.90
21602;DHT22;10963;50.934;4.668;2024-02-23T05:53:07;6.40;99.90
21602;DHT22;10963;50.934;4.668;2024-02-23T05:55:35;6.40;99.90
21602;DHT22;10963;50.934;4.668;2024-02-23T05:58:01;6.50;99.90
21602;DHT22;10963;50.934;4.668;2024-02-23T06:00:26;6.50;99.90
21602;DHT22;10963;50.934;4.668;2024-02-23T06:02:52;6.50;99.90
21602;DHT22;10963;50.934;4.668;2024-02-23T06:05:18;6.50;99.90
21602;DHT22;10963;50.934;4.668;2024-02-23T06:07:43;6.50;99.90
21602;DHT22;10963;50.934;4.668;2024-02-23T06:10:11;6.40;99.90
21602;DHT22;10963;50.934;4.668;2024-02-23T06:12:39;6.40;99.90
21602;DHT22;10963;50.934;4.668;2024-02-23T06:15:05;6.30;99.90
21602;DHT22;10963;50.934;4.668;2024-02-23T06:17:31;6.40;99.90
21602;DHT22;10963;50.934;4.668;2024-02-23T06:19:57;6.40;99.90
21602;DHT22;10963;50.934;4.668;2024-02-23T06:22:26;6.50;99.90
21602;DHT22;10963;50.934;4.668;2024-02-23T06:24:52;6.50;99.90
21602;DHT22;10963;50.934;4.668;2024-02-23T06:27:18;6.60;99.90
21602;DHT22;10963;50.934;4.668;2024-02-23T06:29:44;6.60;99.90
21602;DHT22;10963;50.934;4.668;2024-02-23T06:32:09;6.60;99.90
21602;DHT22;10963;50.934;4.668;2024-02-23T06:34:35;6.60;99.90
21602;DHT22;10963;50.934;4.668;2024-02-23T06:37:03;6.60;99.90
21602;DHT22;10963;50.934;4.668;2024-02-23T06:39:29;6.60;99.90
21602;DHT22;10963;50.934;4.668;2024-02-23T06:41:55;6.60;99.90
21602;DHT22;10963;50.934;4.668;2024-02-23T06:44:20;6.60;99.90
21602;DHT22;10963;50.934;4.668;2024-02-23T06:46:49;6.60;99.90
21602;DHT22;10963;50.934;4.668;2024-02-23T06:49:14;6.60;99.90
21602;DHT22;10963;50.934;4.668;2024-02-23T06:51:42;6.60;99.90
21602;DHT22;10963;50.934;4.668;2024-02-23T06:54:08;6.60;99.90
21602;DHT22;10963;50.934;4.668;2024-02-23T06:56:34;6.60;99.90
21602;DHT22;10963;50.934;4.668;2024-02-23T06:59:02;6.70;99.90
21602;DHT22;10963;50.934;4.668;2024-02-23T07:01:28;6.80;99.90
21602;DHT22;10963;50.934;4.668;2024-02-23T07:03:53;6.70;99.90
21602;DHT22;10963;50.934;4.668;2024-02-23T07:06:24;6.70;99.90
21602;DHT22;10963;50.934;4.668;2024-02-23T07:08:49;6.70;99.90
21602;DHT22;10963;50.934;4.668;2024-02-23T07:11:18;6.80;99.90
21602;DHT22;10963;50.934;4.668;2024-02-23T07:13:44;6.90;99.90
21602;DHT22;10963;50.934;4.668;2024-02-23T07:16:12;6.90;99.90
21602;DHT22;10963;50.934;4.668;2024-02-23T07:18:40;6.90;99.90
21602;DHT22;10963;50.934;4.668;2024-02-23T07:21:08;6.80;99.90
21602;DHT22;10963;50.934;4.668;2024-02-23T07:23:33;6.80;99.90
21602;DHT22;10963;50.934;4.668;2024-02-23T07:26:04;6.80;99.90
21602;DHT22;10963;50.934;4.668;2024-02-23T07:28:32;6.80;99.90
21602;DHT22;10963;50.934;4.668;2024-02-23T07:31:01;6.80;99.90
21602;DHT22;10963;50.934;4.668;2024-02-23T07:33:31;6.70;99.90
21602;DHT22;10963;50.934;4.668;2024-02-23T07:35:57;6.70;99.90
21602;DHT22;10963;50.934;4.668;2024-02-23T07:38:27;6.70;99.90
21602;DHT22;10963;50.934;4.668;2024-02-23T07:40:53;6.70;99.90
21602;DHT22;10963;50.934;4.668;2024-02-23T07:43:21;6.80;99.90
21602;DHT22;10963;50.934;4.668;2024-02-23T07:45:49;6.80;99.90
21602;DHT22;10963;50.934;4.668;2024-02-23T07:48:18;6.80;99.90
21602;DHT22;10963;50.934;4.668;2024-02-23T07:50:43;6.80;99.90
21602;DHT22;10963;50.934;4.668;2024-02-23T07:53:09;6.80;99.90
21602;DHT22;10963;50.934;4.668;2024-02-23T07:55:35;6.90;99.90
21602;DHT22;10963;50.934;4.668;2024-02-23T07:58:00;7.00;99.90
21602;DHT22;10963;50.934;4.668;2024-02-23T08:00:28;6.90;99.90
21602;DHT22;10963;50.934;4.668;2024-02-23T08:02:56;6.90;99.90
21602;DHT22;10963;50.934;4.668;2024-02-23T08:05:25;7.00;99.90
21602;DHT22;10963;50.934;4.668;2024-02-23T08:07:50;7.00;99.90
21602;DHT22;10963;50.934;4.668;2024-02-23T08:10:16;7.10;99.90
21602;DHT22;10963;50.934;4.668;2024-02-23T08:12:44;7.20;99.90
21602;DHT22;10963;50.934;4.668;2024-02-23T08:15:10;7.30;99.90
21602;DHT22;10963;50.934;4.668;2024-02-23T08:17:38;7.30;99.90
21602;DHT22;10963;50.934;4.668;2024-02-23T08:20:07;7.30;99.90
21602;DHT22;10963;50.934;4.668;2024-02-23T08:22:33;7.30;99.90
21602;DHT22;10963;50.934;4.668;2024-02-23T08:24:59;7.30;99.90
21602;DHT22;10963;50.934;4.668;2024-02-23T08:27:24;7.20;99.90
21602;DHT22;10963;50.934;4.668;2024-02-23T08:29:52;7.30;99.90
21602;DHT22;10963;50.934;4.668;2024-02-23T08:32:18;7.30;99.90
21602;DHT22;10963;50.934;4.668;2024-02-23T08:34:44;7.20;99.90
21602;DHT22;10963;50.934;4.668;2024-02-23T08:37:10;7.20;99.90
21602;DHT22;10963;50.934;4.668;2024-02-23T08:39:35;7.10;99.90
21602;DHT22;10963;50.934;4.668;2024-02-23T08:42:07;7.10;99.90
21602;DHT22;10963;50.934;4.668;2024-02-23T08:44:32;7.10;99.90
21602;DHT22;10963;50.934;4.668;2024-02-23T08:46:58;7.00;99.90
21602;DHT22;10963;50.934;4.668;2024-02-23T08:49:26;7.00;99.90
21602;DHT22;10963;50.934;4.668;2024-02-23T08:51:52;6.90;99.90
21602;DHT22;10963;50.934;4.668;2024-02-23T08:54:18;6.80;99.90
21602;DHT22;10963;50.934;4.668;2024-02-23T08:56:46;6.80;99.90
21602;DHT22;10963;50.934;4.668;2024-02-23T08:59:14;6.90;99.90
21602;DHT22;10963;50.934;4.668;2024-02-23T09:01:40;7.00;99.90
21602;DHT22;10963;50.934;4.668;2024-02-23T09:04:08;7.00;99.90
21602;DHT22;10963;50.934;4.668;2024-02-23T09:06:36;7.00;99.90
21602;DHT22;10963;50.934;4.668;2024-02-23T09:09:02;7.00;99.90
21602;DHT22;10963;50.934;4.668;2024-02-23T09:11:27;6.90;99.90
21602;DHT22;10963;50.934;4.668;2024-02-23T09:13:55;6.90;99.90
21602;DHT22;10963;50.934;4.668;2024-02-23T09:16:21;6.90;99.90
21602;DHT22;10963;50.934;4.668;2024-02-23T09:18:50;7.00;99.90
21602;DHT22;10963;50.934;4.668;2024-02-23T09:21:16;6.90;99.90
21602;DHT22;10963;50.934;4.668;2024-02-23T09:23:42;6.90;99.90
21602;DHT22;10963;50.934;4.668;2024-02-23T09:26:15;7.00;99.90
21602;DHT22;10963;50.934;4.668;2024-02-23T09:28:44;7.20;99.90
21602;DHT22;10963;50.934;4.668;2024-02-23T09:31:10;7.30;99.90
21602;DHT22;10963;50.934;4.668;2024-02-23T09:33:36;7.20;99.90
21602;DHT22;10963;50.934;4.668;2024-02-23T09:36:05;7.30;99.90
21602;DHT22;10963;50.934;4.668;2024-02-23T09:38:31;7.30;99.90
21602;DHT22;10963;50.934;4.668;2024-02-23T09:40:58;7.30;99.90
21602;DHT22;10963;50.934;4.668;2024-02-23T09:43:28;7.20;99.90
21602;DHT22;10963;50.934;4.668;2024-02-23T09:45:56;7.20;99.90
21602;DHT22;10963;50.934;4.668;2024-02-23T09:48:25;7.30;99.90
21602;DHT22;10963;50.934;4.668;2024-02-23T09:50:52;7.60;99.90
21602;DHT22;10963;50.934;4.668;2024-02-23T09:53:19;7.80;99.90
21602;DHT22;10963;50.934;4.668;2024-02-23T09:55:47;7.70;99.90
21602;DHT22;10963;50.934;4.668;2024-02-23T09:58:14;7.70;99.90
21602;DHT22;10963;50.934;4.668;2024-02-23T10:00:42;7.90;99.90
21602;DHT22;10963;50.934;4.668;2024-02-23T10:03:09;8.10;99.90
21602;DHT22;10963;50.934;4.668;2024-02-23T10:05:35;8.10;99.90
21602;DHT22;10963;50.934;4.668;2024-02-23T10:08:06;8.30;99.90
21602;DHT22;10963;50.934;4.668;2024-02-23T10:10:37;8.50;99.90
21602;DHT22;10963;50.934;4.668;2024-02-23T10:13:09;8.30;99.90
21602;DHT22;10963;50.934;4.668;2024-02-23T10:15:34;8.40;99.90
21602;DHT22;10963;50.934;4.668;2024-02-23T10:18:03;8.60;99.90
21602;DHT22;10963;50.934;4.668;2024-02-23T10:20:28;8.50;99.90
21602;DHT22;10963;50.934;4.668;2024-02-23T10:22:54;8.50;99.90
21602;DHT22;10963;50.934;4.668;2024-02-23T10:25:22;8.80;99.90
21602;DHT22;10963;50.934;4.668;2024-02-23T10:27:48;8.90;99.90
21602;DHT22;10963;50.934;4.668;2024-02-23T10:30:16;8.80;99.90
21602;DHT22;10963;50.934;4.668;2024-02-23T10:32:42;8.80;99.90
21602;DHT22;10963;50.934;4.668;2024-02-23T10:35:17;9.00;99.90
21602;DHT22;10963;50.934;4.668;2024-02-23T10:37:44;9.30;99.90
21602;DHT22;10963;50.934;4.668;2024-02-23T10:40:13;9.30;99.90
21602;DHT22;10963;50.934;4.668;2024-02-23T10:42:41;9.30;99.90
21602;DHT22;10963;50.934;4.668;2024-02-23T10:45:10;9.40;99.90
21602;DHT22;10963;50.934;4.668;2024-02-23T10:47:41;9.40;99.90
21602;DHT22;10963;50.934;4.668;2024-02-23T10:50:09;9.30;99.90
21602;DHT22;10963;50.934;4.668;2024-02-23T10:52:36;9.20;99.90
21602;DHT22;10963;50.934;4.668;2024-02-23T10:55:02;9.10;99.90
21602;DHT22;10963;50.934;4.668;2024-02-23T10:57:34;9.20;99.90
21602;DHT22;10963;50.934;4.668;2024-02-23T11:00:03;9.00;99.90
21602;DHT22;10963;50.934;4.668;2024-02-23T11:02:40;8.90;99.90
21602;DHT22;10963;50.934;4.668;2024-02-23T11:05:11;9.00;99.90
21602;DHT22;10963;50.934;4.668;2024-02-23T11:07:39;9.10;99.90
21602;DHT22;10963;50.934;4.668;2024-02-23T11:10:07;9.30;99.90
21602;DHT22;10963;50.934;4.668;2024-02-23T11:12:35;9.40;99.90
21602;DHT22;10963;50.934;4.668;2024-02-23T11:15:01;9.40;99.90
21602;DHT22;10963;50.934;4.668;2024-02-23T11:17:31;9.30;99.90
21602;DHT22;10963;50.934;4.668;2024-02-23T11:19:57;9.40;99.90
21602;DHT22;10963;50.934;4.668;2024-02-23T11:22:41;9.20;99.90
21602;DHT22;10963;50.934;4.668;2024-02-23T11:25:07;9.00;99.90
21602;DHT22;10963;50.934;4.668;2024-02-23T11:27:37;9.00;99.90
21602;DHT22;10963;50.934;4.668;2024-02-23T11:30:05;9.00;99.90
21602;DHT22;10963;50.934;4.668;2024-02-23T11:32:45;8.90;99.90
21602;DHT22;10963;50.934;4.668;2024-02-23T11:35:13;9.10;99.90
21602;DHT22;10963;50.934;4.668;2024-02-23T11:37:53;9.20;99.90
21602;DHT22;10963;50.934;4.668;2024-02-23T11:40:32;9.00;99.90
21602;DHT22;10963;50.934;4.668;2024-02-23T11:42:59;8.90;99.90
21602;DHT22;10963;50.934;4.668;2024-02-23T11:45:33;8.90;99.90
21602;DHT22;10963;50.934;4.668;2024-02-23T11:47:59;9.00;99.90
21602;DHT22;10963;50.934;4.668;2024-02-23T11:50:27;8.90;99.90
21602;DHT22;10963;50.934;4.668;2024-02-23T11:52:55;9.10;99.90
21602;DHT22;10963;50.934;4.668;2024-02-23T11:55:23;9.30;99.90
21602;DHT22;10963;50.934;4.668;2024-02-23T11:57:49;9.40;99.90
21602;DHT22;10963;50.934;4.668;2024-02-23T12:00:15;9.50;99.90
21602;DHT22;10963;50.934;4.668;2024-02-23T12:02:45;9.40;99.90
21602;DHT22;10963;50.934;4.668;2024-02-23T12:05:18;9.50;99.90
21602;DHT22;10963;50.934;4.668;2024-02-23T12:07:44;9.50;99.90
21602;DHT22;10963;50.934;4.668;2024-02-23T12:10:12;9.80;99.90
21602;DHT22;10963;50.934;4.668;2024-02-23T12:12:43;10.00;99.90
21602;DHT22;10963;50.934;4.668;2024-02-23T12:15:11;9.90;99.90
21602;DHT22;10963;50.934;4.668;2024-02-23T12:17:37;9.90;99.90
21602;DHT22;10963;50.934;4.668;2024-02-23T12:20:03;10.00;99.90
21602;DHT22;10963;50.934;4.668;2024-02-23T12:22:32;9.90;99.90
21602;DHT22;10963;50.934;4.668;2024-02-23T12:25:00;10.00;99.90
21602;DHT22;10963;50.934;4.668;2024-02-23T12:27:26;10.00;99.90
21602;DHT22;10963;50.934;4.668;2024-02-23T12:29:55;10.30;99.90
21602;DHT22;10963;50.934;4.668;2024-02-23T12:32:21;10.10;99.90
21602;DHT22;10963;50.934;4.668;2024-02-23T12:34:47;10.30;99.90
21602;DHT22;10963;50.934;4.668;2024-02-23T12:37:17;10.10;99.90
21602;DHT22;10963;50.934;4.668;2024-02-23T12:39:43;10.10;99.90
21602;DHT22;10963;50.934;4.668;2024-02-23T12:42:12;10.40;99.90
21602;DHT22;10963;50.934;4.668;2024-02-23T12:44:37;10.30;99.90
21602;DHT22;10963;50.934;4.668;2024-02-23T12:47:03;10.40;99.90
21602;DHT22;10963;50.934;4.668;2024-02-23T12:49:29;10.30;99.90
21602;DHT22;10963;50.934;4.668;2024-02-23T12:51:55;10.30;99.90
21602;DHT22;10963;50.934;4.668;2024-02-23T12:54:21;10.20;99.90
21602;DHT22;10963;50.934;4.668;2024-02-23T12:56:49;10.10;99.90
21602;DHT22;10963;50.934;4.668;2024-02-23T12:59:15;10.00;99.90
21602;DHT22;10963;50.934;4.668;2024-02-23T13:01:41;10.10;99.90
21602;DHT22;10963;50.934;4.668;2024-02-23T13:04:06;10.10;99.90
21602;DHT22;10963;50.934;4.668;2024-02-23T13:06:37;10.00;99.90
21602;DHT22;10963;50.934;4.668;2024-02-23T13:09:06;9.90;99.90
21602;DHT22;10963;50.934;4.668;2024-02-23T13:11:38;10.10;99.90
21602;DHT22;10963;50.934;4.668;2024-02-23T13:14:06;10.00;99.90
21602;DHT22;10963;50.934;4.668;2024-02-23T13:16:37;9.80;99.90
21602;DHT22;10963;50.934;4.668;2024-02-23T13:19:03;9.60;99.90
21602;DHT22;10963;50.934;4.668;2024-02-23T13:21:29;9.70;99.90
21602;DHT22;10963;50.934;4.668;2024-02-23T13:24:00;9.90;99.90
21602;DHT22;10963;50.934;4.668;2024-02-23T13:26:28;10.10;99.90
21602;DHT22;10963;50.934;4.668;2024-02-23T13:28:53;10.40;99.90
21602;DHT22;10963;50.934;4.668;2024-02-23T13:31:20;10.20;99.90
21602;DHT22;10963;50.934;4.668;2024-02-23T13:33:46;10.30;99.90
21602;DHT22;10963;50.934;4.668;2024-02-23T13:36:12;10.30;99.90
21602;DHT22;10963;50.934;4.668;2024-02-23T13:38:37;10.30;99.90
21602;DHT22;10963;50.934;4.668;2024-02-23T13:41:05;10.40;99.90
21602;DHT22;10963;50.934;4.668;2024-02-23T13:43:33;10.50;99.90
21602;DHT22;10963;50.934;4.668;2024-02-23T13:45:59;10.30;99.90
21602;DHT22;10963;50.934;4.668;2024-02-23T13:48:25;10.20;99.90
21602;DHT22;10963;50.934;4.668;2024-02-23T13:50:51;10.50;99.90
21602;DHT22;10963;50.934;4.668;2024-02-23T13:53:19;10.70;99.90
21602;DHT22;10963;50.934;4.668;2024-02-23T13:55:45;10.40;99.90
21602;DHT22;10963;50.934;4.668;2024-02-23T13:58:11;10.40;99.90
21602;DHT22;10963;50.934;4.668;2024-02-23T14:00:37;10.40;99.90
21602;DHT22;10963;50.934;4.668;2024-02-23T14:03:03;10.40;99.90
21602;DHT22;10963;50.934;4.668;2024-02-23T14:05:29;10.40;99.90
21602;DHT22;10963;50.934;4.668;2024-02-23T14:07:55;10.10;99.90
21602;DHT22;10963;50.934;4.668;2024-02-23T14:10:21;10.10;99.90
21602;DHT22;10963;50.934;4.668;2024-02-23T14:12:47;10.10;99.90
21602;DHT22;10963;50.934;4.668;2024-02-23T14:15:12;9.90;99.90
21602;DHT22;10963;50.934;4.668;2024-02-23T14:17:38;9.90;99.90
21602;DHT22;10963;50.934;4.668;2024-02-23T14:20:07;9.90;99.90
21602;DHT22;10963;50.934;4.668;2024-02-23T14:22:33;9.90;99.90
21602;DHT22;10963;50.934;4.668;2024-02-23T14:25:01;9.80;99.90
21602;DHT22;10963;50.934;4.668;2024-02-23T14:27:26;9.70;99.90
21602;DHT22;10963;50.934;4.668;2024-02-23T14:29:53;9.70;99.90
21602;DHT22;10963;50.934;4.668;2024-02-23T14:32:22;9.70;99.90
21602;DHT22;10963;50.934;4.668;2024-02-23T14:34:48;9.80;99.90
21602;DHT22;10963;50.934;4.668;2024-02-23T14:37:13;9.70;99.90
21602;DHT22;10963;50.934;4.668;2024-02-23T14:39:42;9.80;99.90
21602;DHT22;10963;50.934;4.668;2024-02-23T14:42:07;9.80;99.90
21602;DHT22;10963;50.934;4.668;2024-02-23T14:44:35;9.70;99.90
21602;DHT22;10963;50.934;4.668;2024-02-23T14:47:01;9.70;99.90
21602;DHT22;10963;50.934;4.668;2024-02-23T14:49:30;9.70;99.90
21602;DHT22;10963;50.934;4.668;2024-02-23T14:51:55;9.80;99.90
21602;DHT22;10963;50.934;4.668;2024-02-23T14:54:23;9.70;99.90
21602;DHT22;10963;50.934;4.668;2024-02-23T14:56:51;9.80;99.90
21602;DHT22;10963;50.934;4.668;2024-02-23T14:59:17;9.80;99.90
21602;DHT22;10963;50.934;4.668;2024-02-23T15:01:43;9.90;99.90
21602;DHT22;10963;50.934;4.668;2024-02-23T15:04:09;9.70;99.90
21602;DHT22;10963;50.934;4.668;2024-02-23T15:06:35;9.70;99.90
21602;DHT22;10963;50.934;4.668;2024-02-23T15:09:04;9.70;99.90
21602;DHT22;10963;50.934;4.668;2024-02-23T15:11:30;9.80;99.90
21602;DHT22;10963;50.934;4.668;2024-02-23T15:13:56;10.00;99.90
21602;DHT22;10963;50.934;4.668;2024-02-23T15:16:29;10.00;99.90
21602;DHT22;10963;50.934;4.668;2024-02-23T15:18:57;10.10;99.90
21602;DHT22;10963;50.934;4.668;2024-02-23T15:21:24;10.40;99.90
21602;DHT22;10963;50.934;4.668;2024-02-23T15:23:55;10.30;99.90
21602;DHT22;10963;50.934;4.668;2024-02-23T15:26:24;10.20;99.90
21602;DHT22;10963;50.934;4.668;2024-02-23T15:28:49;9.90;99.90
21602;DHT22;10963;50.934;4.668;2024-02-23T15:31:17;9.90;99.90
21602;DHT22;10963;50.934;4.668;2024-02-23T15:33:43;9.90;99.90
21602;DHT22;10963;50.934;4.668;2024-02-23T15:36:09;9.80;99.90
21602;DHT22;10963;50.934;4.668;2024-02-23T15:38:35;9.70;99.90
21602;DHT22;10963;50.934;4.668;2024-02-23T15:41:01;9.70;99.90
21602;DHT22;10963;50.934;4.668;2024-02-23T15:43:30;9.70;99.90
21602;DHT22;10963;50.934;4.668;2024-02-23T15:45:58;9.70;99.90